Time;durP1;ratioP1;P1;durP2;ratioP2;P2;SDS_P1;SDS_P2;PMS_P1;PMS_P2;Temp;Humidity;BMP_temperature;BMP_pressure;BME280_temperature;BME280_humidity;BME280_pressure;Samples;Min_cycle;Max_cycle;Signal;HPM_P1;HPM_P2
2022/06/13 00:01:16;;;;;;;4.23;1.63;;;;;;;;;;5053048;28;20448;-60
2022/06/13 00:03:43;;;;;;;4.70;1.80;;;;;;;;;;5053236;28;20474;-59
2022/06/13 00:06:10;;;;;;;3.27;1.80;;;;;;;;;;5053134;28;20986;-60
2022/06/13 00:08:39;;;;;;;3.13;1.60;;;;;;;;;;5053020;28;20462;-60
2022/06/13 00:11:09;;;;;;;3.70;1.87;;;;;;;;;;5052978;28;20488;-59
2022/06/13 00:13:36;;;;;;;4.70;1.90;;;;;;;;;;5052933;28;20479;-60
2022/06/13 00:16:03;;;;;;;3.30;1.73;;;;;;;;;;5052785;28;20459;-60
2022/06/13 00:18:30;;;;;;;3.87;1.77;;;;;;;;;;5052999;28;20554;-60
2022/06/13 00:20:57;;;;;;;3.00;1.60;;;;;;;;;;5053016;28;20531;-60
2022/06/13 00:23:24;;;;;;;4.27;1.90;;;;;;;;;;5052806;28;20556;-60
2022/06/13 00:25:52;;;;;;;5.07;1.60;;;;;;;;;;5054147;28;20448;-59
2022/06/13 00:28:19;;;;;;;1.90;1.50;;;;;;;;;;5056873;28;20880;-59
2022/06/13 00:30:46;;;;;;;6.57;1.87;;;;;;;;;;5056785;28;20480;-59
2022/06/13 00:33:13;;;;;;;4.13;1.90;;;;;;;;;;5056950;28;20454;-60
2022/06/13 00:35:40;;;;;;;4.10;1.73;;;;;;;;;;5056860;28;20815;-60
2022/06/13 00:38:07;;;;;;;5.63;2.10;;;;;;;;;;5056801;28;20543;-60
2022/06/13 00:40:35;;;;;;;3.10;1.50;;;;;;;;;;5056697;28;20880;-60
2022/06/13 00:43:05;;;;;;;2.67;1.50;;;;;;;;;;5056378;28;20483;-59
2022/06/13 00:45:33;;;;;;;4.90;1.70;;;;;;;;;;5056755;28;20452;-60
2022/06/13 00:48:00;;;;;;;3.70;1.80;;;;;;;;;;5056698;28;20454;-59
2022/06/13 00:50:29;;;;;;;3.97;2.10;;;;;;;;;;5056519;28;20523;-59
2022/06/13 00:52:57;;;;;;;4.43;2.00;;;;;;;;;;5056500;28;20452;-60
2022/06/13 00:55:27;;;;;;;5.97;2.77;;;;;;;;;;5056439;28;20535;-60
2022/06/13 00:57:55;;;;;;;4.63;1.73;;;;;;;;;;5056392;28;20458;-60
2022/06/13 01:00:23;;;;;;;4.40;1.97;;;;;;;;;;5056440;28;20458;-59
2022/06/13 01:02:51;;;;;;;4.97;2.53;;;;;;;;;;5056389;28;20476;-60
2022/06/13 01:05:21;;;;;;;2.83;1.80;;;;;;;;;;5056337;28;20502;-60
2022/06/13 01:07:49;;;;;;;4.80;1.77;;;;;;;;;;5056486;28;20539;-60
2022/06/13 01:13:02;;;;;;;3.53;1.70;;;;;;;;;;5056223;28;21033;-60
2022/06/13 01:15:40;;;;;;;1.93;1.30;;;;;;;;;;5056220;28;20448;-60
2022/06/13 01:18:16;;;;;;;2.87;1.70;;;;;;;;;;5056099;28;20448;-60
2022/06/13 01:20:51;;;;;;;3.73;2.13;;;;;;;;;;5055989;28;20906;-60
2022/06/13 01:23:37;;;;;;;5.97;2.13;;;;;;;;;;5056097;28;20448;-60
2022/06/13 01:26:16;;;;;;;4.20;2.30;;;;;;;;;;5055952;28;20796;-60
2022/06/13 01:28:49;;;;;;;3.80;1.73;;;;;;;;;;5055853;28;20448;-61
2022/06/13 01:31:19;;;;;;;3.03;1.80;;;;;;;;;;5056011;28;20455;-60
2022/06/13 01:33:53;;;;;;;6.33;1.97;;;;;;;;;;5055907;28;20970;-59
2022/06/13 01:36:28;;;;;;;3.13;1.70;;;;;;;;;;5055726;28;20444;-60
2022/06/13 01:39:01;;;;;;;3.00;1.70;;;;;;;;;;5055693;28;20454;-60
2022/06/13 01:41:33;;;;;;;5.60;1.80;;;;;;;;;;5055560;28;20811;-60
2022/06/13 01:44:06;;;;;;;3.70;2.10;;;;;;;;;;5055458;28;20479;-60
2022/06/13 01:46:36;;;;;;;4.33;1.97;;;;;;;;;;5055631;28;20440;-60
2022/06/13 01:49:08;;;;;;;3.50;1.97;;;;;;;;;;5055482;28;20458;-60
2022/06/13 01:51:38;;;;;;;5.87;1.63;;;;;;;;;;5055476;28;20811;-60
2022/06/13 01:54:15;;;;;;;6.00;2.07;;;;;;;;;;5055282;28;20476;-60
2022/06/13 01:56:46;;;;;;;4.83;1.83;;;;;;;;;;5055490;28;20447;-59
2022/06/13 01:59:16;;;;;;;6.50;1.90;;;;;;;;;;5055340;28;20812;-59
2022/06/13 02:01:45;;;;;;;3.60;1.80;;;;;;;;;;5055342;28;20480;-60
2022/06/13 02:04:15;;;;;;;4.47;2.07;;;;;;;;;;5055004;28;20448;-60
2022/06/13 02:06:44;;;;;;;4.17;1.80;;;;;;;;;;5055370;28;20853;-60
2022/06/13 02:09:14;;;;;;;3.77;1.70;;;;;;;;;;5055129;28;20452;-60
2022/06/13 02:11:44;;;;;;;2.87;1.90;;;;;;;;;;5055100;28;20455;-59
2022/06/13 02:14:12;;;;;;;3.53;2.13;;;;;;;;;;5054925;28;20448;-60
2022/06/13 02:16:43;;;;;;;4.37;2.10;;;;;;;;;;5054850;28;20450;-60
2022/06/13 02:19:16;;;;;;;3.33;2.10;;;;;;;;;;5055060;28;20452;-59
2022/06/13 02:21:45;;;;;;;5.40;2.17;;;;;;;;;;5055010;28;20870;-59
2022/06/13 02:24:19;;;;;;;2.20;2.00;;;;;;;;;;5054698;28;20954;-59
2022/06/13 02:26:50;;;;;;;4.60;3.23;;;;;;;;;;5054700;28;20955;-60
2022/06/13 02:29:19;;;;;;;5.63;1.80;;;;;;;;;;5054436;28;20482;-60
2022/06/13 02:31:47;;;;;;;5.33;1.93;;;;;;;;;;5054826;28;20800;-60
2022/06/13 02:34:18;;;;;;;5.30;2.50;;;;;;;;;;5054738;28;20448;-60
2022/06/13 02:36:49;;;;;;;4.73;2.20;;;;;;;;;;5054634;28;20444;-60
2022/06/13 02:39:19;;;;;;;4.20;2.00;;;;;;;;;;5054576;28;20909;-59
2022/06/13 02:41:50;;;;;;;3.70;1.83;;;;;;;;;;5054433;28;20448;-59
2022/06/13 02:44:20;;;;;;;4.00;2.00;;;;;;;;;;5054300;28;20472;-60
2022/06/13 02:46:49;;;;;;;5.97;2.60;;;;;;;;;;5054489;28;20811;-61
2022/06/13 02:49:20;;;;;;;8.67;2.70;;;;;;;;;;5053578;28;20927;-60
2022/06/13 02:51:50;;;;;;;5.00;1.90;;;;;;;;;;5054251;28;20459;-60
2022/06/13 02:54:19;;;;;;;2.97;1.83;;;;;;;;;;5054157;28;20445;-59
2022/06/13 02:59:43;;;;;;;6.73;2.40;;;;;;;;;;5054129;28;20439;-60
2022/06/13 03:02:13;;;;;;;3.20;1.97;;;;;;;;;;5054074;28;20448;-60
2022/06/13 03:04:43;;;;;;;4.43;2.30;;;;;;;;;;5054014;28;20448;-60
2022/06/13 03:07:13;;;;;;;3.57;1.70;;;;;;;;;;5054109;28;20454;-60
2022/06/13 03:09:42;;;;;;;4.97;2.10;;;;;;;;;;5053938;28;20476;-60
2022/06/13 03:12:12;;;;;;;4.67;2.80;;;;;;;;;;5053882;28;20453;-60
2022/06/13 03:14:41;;;;;;;5.67;2.73;;;;;;;;;;5053841;28;20812;-60
2022/06/13 03:17:13;;;;;;;4.77;2.07;;;;;;;;;;5053618;28;20475;-59
2022/06/13 03:19:43;;;;;;;5.70;2.40;;;;;;;;;;5053909;28;20426;-60
2022/06/13 03:22:15;;;;;;;4.17;2.60;;;;;;;;;;5053975;28;20459;-59
2022/06/13 03:24:48;;;;;;;6.87;2.27;;;;;;;;;;5053747;28;20506;-59
2022/06/13 03:27:29;;;;;;;3.60;1.90;;;;;;;;;;5053598;28;20804;-60
2022/06/13 03:29:58;;;;;;;3.80;2.37;;;;;;;;;;5053349;28;20498;-60
2022/06/13 03:32:27;;;;;;;4.87;2.63;;;;;;;;;;5053532;28;20804;-60
2022/06/13 03:34:58;;;;;;;5.80;2.43;;;;;;;;;;5053531;28;20455;-60
2022/06/13 03:37:28;;;;;;;6.67;1.80;;;;;;;;;;5053397;28;20452;-60
2022/06/13 03:39:57;;;;;;;5.63;2.20;;;;;;;;;;5053330;28;20487;-59
2022/06/13 03:42:26;;;;;;;5.13;2.10;;;;;;;;;;5053061;28;20449;-60
2022/06/13 03:44:54;;;;;;;9.97;2.47;;;;;;;;;;5053217;28;20492;-60
2022/06/13 03:47:24;;;;;;;4.30;2.40;;;;;;;;;;5053323;28;20452;-59
2022/06/13 03:49:52;;;;;;;4.07;2.33;;;;;;;;;;5053182;28;20476;-64
2022/06/13 03:52:21;;;;;;;3.97;2.13;;;;;;;;;;5053154;28;20452;-60
2022/06/13 03:54:50;;;;;;;7.53;2.20;;;;;;;;;;5052999;28;20458;-59
2022/06/13 03:57:20;;;;;;;5.90;2.30;;;;;;;;;;5053324;28;20455;-60
2022/06/13 03:59:49;;;;;;;4.23;2.53;;;;;;;;;;5053083;28;20475;-59
2022/06/13 04:02:18;;;;;;;4.20;1.90;;;;;;;;;;5052770;28;20459;-59
2022/06/13 04:04:46;;;;;;;6.03;2.07;;;;;;;;;;5052913;28;20452;-60
2022/06/13 04:07:13;;;;;;;3.17;2.53;;;;;;;;;;5052790;28;20448;-60
2022/06/13 04:09:43;;;;;;;8.80;3.37;;;;;;;;;;5052690;28;20954;-60
2022/06/13 04:12:28;;;;;;;4.63;2.40;;;;;;;;;;5052995;28;20543;-59
2022/06/13 04:15:16;;;;;;;10.60;2.10;;;;;;;;;;5052932;28;20458;-59
2022/06/13 04:17:48;;;;;;;3.70;2.33;;;;;;;;;;5052777;28;20455;-60
2022/06/13 04:20:20;;;;;;;4.80;2.07;;;;;;;;;;5052978;28;20452;-60
2022/06/13 04:22:50;;;;;;;5.87;2.10;;;;;;;;;;5052921;28;20539;-60
2022/06/13 04:25:25;;;;;;;4.10;2.50;;;;;;;;;;5052868;28;20451;-60
2022/06/13 04:27:55;;;;;;;4.23;2.67;;;;;;;;;;5052825;28;20861;-60
2022/06/13 04:30:23;;;;;;;3.57;2.10;;;;;;;;;;5052601;28;21033;-60
2022/06/13 04:32:53;;;;;;;3.43;2.53;;;;;;;;;;5052831;28;20448;-59
2022/06/13 04:35:21;;;;;;;4.27;2.83;;;;;;;;;;5052755;28;20484;-59
2022/06/13 04:37:49;;;;;;;8.50;2.47;;;;;;;;;;5052736;28;20449;-60
2022/06/13 04:40:19;;;;;;;5.13;2.77;;;;;;;;;;5053163;28;20459;-60
2022/06/13 04:42:48;;;;;;;6.50;2.70;;;;;;;;;;5052694;28;20472;-61
2022/06/13 04:45:19;;;;;;;4.30;2.60;;;;;;;;;;5052785;28;20842;-59
2022/06/13 04:47:47;;;;;;;4.83;2.70;;;;;;;;;;5052716;28;20456;-59
2022/06/13 04:50:17;;;;;;;7.23;2.40;;;;;;;;;;5052530;28;20479;-59
2022/06/13 04:52:45;;;;;;;4.27;2.37;;;;;;;;;;5052520;28;20445;-60
2022/06/13 04:55:16;;;;;;;4.73;2.23;;;;;;;;;;5052361;28;20797;-59
2022/06/13 04:57:43;;;;;;;7.10;2.87;;;;;;;;;;5052391;28;20448;-59
2022/06/13 05:00:12;;;;;;;5.70;2.43;;;;;;;;;;5052503;28;20452;-60
2022/06/13 05:02:40;;;;;;;6.20;2.33;;;;;;;;;;5052417;28;20497;-60
2022/06/13 05:05:09;;;;;;;8.80;3.10;;;;;;;;;;5052349;28;20537;-60
2022/06/13 05:07:36;;;;;;;4.97;2.60;;;;;;;;;;5052082;28;21012;-59
2022/06/13 05:10:05;;;;;;;5.77;2.57;;;;;;;;;;5052303;28;20448;-59
2022/06/13 05:12:34;;;;;;;8.60;2.57;;;;;;;;;;5054605;28;20886;-60
2022/06/13 05:15:03;;;;;;;4.97;2.37;;;;;;;;;;5056019;28;20448;-59
2022/06/13 05:17:44;;;;;;;6.60;2.57;;;;;;;;;;5055922;28;20454;-60
2022/06/13 05:20:17;;;;;;;6.03;3.10;;;;;;;;;;5047075;28;20447;-59
2022/06/13 05:22:50;;;;;;;4.97;2.90;;;;;;;;;;5056042;28;20555;-59
2022/06/13 05:25:26;;;;;;;6.83;2.70;;;;;;;;;;5055956;28;20444;-60
2022/06/13 05:27:54;;;;;;;5.83;2.70;;;;;;;;;;5055750;28;20448;-60
2022/06/13 05:30:22;;;;;;;4.57;2.40;;;;;;;;;;5055496;28;20479;-59
2022/06/13 05:32:49;;;;;;;3.80;2.40;;;;;;;;;;5055522;28;20543;-59
2022/06/13 05:35:21;;;;;;;9.73;2.80;;;;;;;;;;5055700;28;20454;-59
2022/06/13 05:37:48;;;;;;;4.80;2.50;;;;;;;;;;5055743;28;20777;-59
2022/06/13 05:40:15;;;;;;;8.87;2.73;;;;;;;;;;5055469;28;20652;-59
2022/06/13 05:42:42;;;;;;;13.70;3.20;;;;;;;;;;5055290;28;20796;-59
2022/06/13 05:45:12;;;;;;;7.50;2.93;;;;;;;;;;5055193;28;20535;-60
2022/06/13 05:47:39;;;;;;;3.47;2.37;;;;;;;;;;5055471;28;20813;-60
2022/06/13 05:50:06;;;;;;;4.60;1.97;;;;;;;;;;5055358;28;20471;-60
2022/06/13 05:52:35;;;;;;;5.17;2.50;;;;;;;;;;5055294;28;20467;-60
2022/06/13 05:55:01;;;;;;;4.37;1.60;;;;;;;;;;5055150;28;20539;-60
2022/06/13 05:57:29;;;;;;;5.00;2.33;;;;;;;;;;5055115;28;20570;-60
2022/06/13 05:59:56;;;;;;;4.90;2.03;;;;;;;;;;5054937;28;20531;-60
2022/06/13 06:02:23;;;;;;;5.17;2.10;;;;;;;;;;5055223;28;20452;-60
2022/06/13 06:04:49;;;;;;;4.20;2.10;;;;;;;;;;5055157;28;20559;-60
2022/06/13 06:07:16;;;;;;;5.00;2.50;;;;;;;;;;5055031;28;20475;-60
2022/06/13 06:09:45;;;;;;;3.80;1.90;;;;;;;;;;5054967;28;20454;-60
2022/06/13 06:12:12;;;;;;;5.90;2.33;;;;;;;;;;5054605;28;20484;-60
2022/06/13 06:14:39;;;;;;;6.47;2.30;;;;;;;;;;5054981;28;20456;-60
2022/06/13 06:17:06;;;;;;;6.50;2.17;;;;;;;;;;5054897;28;20539;-61
2022/06/13 06:19:32;;;;;;;6.63;2.13;;;;;;;;;;5054880;28;20539;-60
2022/06/13 06:21:59;;;;;;;6.53;2.70;;;;;;;;;;5054781;28;20623;-60
2022/06/13 06:24:27;;;;;;;4.57;2.10;;;;;;;;;;5053631;28;20822;-60
2022/06/13 06:26:55;;;;;;;4.90;2.30;;;;;;;;;;5054500;28;20452;-60
2022/06/13 06:29:23;;;;;;;4.50;2.20;;;;;;;;;;5054807;28;20781;-60
2022/06/13 06:31:49;;;;;;;4.90;2.40;;;;;;;;;;5054648;28;20484;-60
2022/06/13 06:34:17;;;;;;;5.60;2.37;;;;;;;;;;5054612;28;20450;-60
2022/06/13 06:36:44;;;;;;;5.00;2.80;;;;;;;;;;5054443;28;20811;-60
2022/06/13 06:39:10;;;;;;;6.30;2.63;;;;;;;;;;5054343;28;20539;-60
2022/06/13 06:41:37;;;;;;;2.50;2.27;;;;;;;;;;5054497;28;20443;-60
2022/06/13 06:44:06;;;;;;;13.37;2.30;;;;;;;;;;5054075;28;20986;-60
2022/06/13 06:46:33;;;;;;;3.33;2.10;;;;;;;;;;5054219;28;20448;-60
2022/06/13 06:49:00;;;;;;;5.90;2.40;;;;;;;;;;5054284;28;20585;-60
2022/06/13 06:51:29;;;;;;;4.27;2.00;;;;;;;;;;5054034;28;20522;-60
2022/06/13 06:59:56;;;;;;;4.83;1.70;;;;;;;;;;4992542;28;20454;-60
2022/06/13 07:02:23;;;;;;;4.80;1.40;;;;;;;;;;5033341;28;20458;-60
2022/06/13 07:04:51;;;;;;;5.67;3.00;;;;;;;;;;5054020;28;20466;-60
2022/06/13 07:07:18;;;;;;;4.47;2.10;;;;;;;;;;5053811;28;20965;-60
2022/06/13 07:09:45;;;;;;;4.07;2.00;;;;;;;;;;5053718;28;20484;-61
2022/06/13 07:12:12;;;;;;;4.67;2.47;;;;;;;;;;5053600;28;20484;-60
2022/06/13 07:14:40;;;;;;;7.80;2.20;;;;;;;;;;5052765;28;20471;-60
2022/06/13 07:17:08;;;;;;;2.53;1.90;;;;;;;;;;5033508;28;20511;-60
2022/06/13 07:19:35;;;;;;;2.97;1.90;;;;;;;;;;5033658;28;20568;-58
2022/06/13 07:22:03;;;;;;;5.00;2.00;;;;;;;;;;5053079;28;20480;-58
2022/06/13 07:24:31;;;;;;;5.20;2.30;;;;;;;;;;5053083;28;20440;-51
2022/06/13 07:26:58;;;;;;;1.67;1.37;;;;;;;;;;5053446;28;20448;-51
2022/06/13 07:29:25;;;;;;;2.50;1.80;;;;;;;;;;5053346;28;20539;-59
2022/06/13 07:31:55;;;;;;;5.90;1.97;;;;;;;;;;5053439;28;20487;-59
2022/06/13 07:34:23;;;;;;;3.73;1.60;;;;;;;;;;5053167;28;20452;-59
2022/06/13 07:36:51;;;;;;;3.43;1.80;;;;;;;;;;5053158;28;20534;-57
2022/06/13 07:39:18;;;;;;;6.23;1.67;;;;;;;;;;5053259;28;20535;-55
2022/06/13 07:41:46;;;;;;;4.93;2.30;;;;;;;;;;5052929;28;20456;-54
2022/06/13 07:44:16;;;;;;;1.83;1.30;;;;;;;;;;5053012;28;20895;-57
2022/06/13 07:46:46;;;;;;;5.77;2.30;;;;;;;;;;5053211;28;20463;-57
2022/06/13 07:49:14;;;;;;;4.27;1.80;;;;;;;;;;5053075;28;20974;-59
2022/06/13 07:51:41;;;;;;;3.03;1.50;;;;;;;;;;5052952;28;20457;-58
2022/06/13 07:54:08;;;;;;;4.17;1.70;;;;;;;;;;5052635;28;20456;-60
2022/06/13 07:56:36;;;;;;;4.70;1.70;;;;;;;;;;5053114;28;20959;-58
2022/06/13 07:59:04;;;;;;;2.23;1.53;;;;;;;;;;5052957;28;20487;-59
2022/06/13 08:01:31;;;;;;;3.40;1.30;;;;;;;;;;5053029;28;20863;-55
2022/06/13 08:03:58;;;;;;;3.13;1.70;;;;;;;;;;5052898;28;20449;-55
2022/06/13 08:06:27;;;;;;;5.80;1.77;;;;;;;;;;5052633;28;20444;-53
2022/06/13 08:08:54;;;;;;;4.40;1.33;;;;;;;;;;5052680;28;20467;-56
2022/06/13 08:11:24;;;;;;;3.47;1.47;;;;;;;;;;5052914;28;20836;-49
2022/06/13 08:13:51;;;;;;;5.50;1.70;;;;;;;;;;5052707;28;20494;-50
2022/06/13 08:16:18;;;;;;;1.97;1.37;;;;;;;;;;5052494;28;20448;-55
2022/06/13 08:18:44;;;;;;;3.63;1.50;;;;;;;;;;5052682;28;20452;-55
2022/06/13 08:21:12;;;;;;;3.33;1.50;;;;;;;;;;5052620;28;20474;-51
2022/06/13 08:23:40;;;;;;;4.17;1.50;;;;;;;;;;5052440;28;20452;-50
2022/06/13 08:26:09;;;;;;;3.10;1.40;;;;;;;;;;5052784;28;20815;-50
2022/06/13 08:28:36;;;;;;;2.00;1.40;;;;;;;;;;5052770;28;20812;-51
2022/06/13 08:31:05;;;;;;;4.60;1.63;;;;;;;;;;5052505;28;20452;-60
2022/06/13 08:33:33;;;;;;;2.50;1.27;;;;;;;;;;5052675;28;20450;-54
2022/06/13 08:36:00;;;;;;;3.30;1.43;;;;;;;;;;5052517;28;20449;-59
2022/06/13 08:38:27;;;;;;;2.90;1.23;;;;;;;;;;5052589;28;20842;-60
2022/06/13 08:41:00;;;;;;;3.97;1.57;;;;;;;;;;5052568;28;20967;-55
2022/06/13 08:43:37;;;;;;;3.27;1.30;;;;;;;;;;5052300;28;20558;-62
2022/06/13 08:46:09;;;;;;;6.30;2.00;;;;;;;;;;5052472;28;20456;-51
2022/06/13 08:48:40;;;;;;;2.77;1.47;;;;;;;;;;5056353;28;20494;-48
2022/06/13 08:51:09;;;;;;;3.00;1.50;;;;;;;;;;5056480;28;20444;-48
2022/06/13 08:53:39;;;;;;;1.90;1.30;;;;;;;;;;5056238;28;20452;-48
2022/06/13 08:56:09;;;;;;;5.07;1.57;;;;;;;;;;5056479;28;20652;-55
2022/06/13 08:58:38;;;;;;;3.87;1.37;;;;;;;;;;5056311;28;20513;-50
2022/06/13 09:01:08;;;;;;;4.93;1.80;;;;;;;;;;5055992;28;20462;-59
2022/06/13 09:03:37;;;;;;;5.40;1.70;;;;;;;;;;5056711;28;20454;-57
2022/06/13 09:06:11;;;;;;;3.53;1.40;;;;;;;;;;5056317;28;20459;-59
2022/06/13 09:08:43;;;;;;;3.53;2.00;;;;;;;;;;5056116;28;20451;-57
2022/06/13 09:11:16;;;;;;;3.00;1.40;;;;;;;;;;5055880;28;20944;-57
2022/06/13 09:13:46;;;;;;;2.83;1.47;;;;;;;;;;5055711;28;20452;-58
2022/06/13 09:16:15;;;;;;;7.50;1.67;;;;;;;;;;5056065;28;20449;-56
2022/06/13 09:18:46;;;;;;;2.63;1.70;;;;;;;;;;5056057;28;20538;-56
2022/06/13 09:21:17;;;;;;;6.33;1.80;;;;;;;;;;5055925;28;20471;-51
2022/06/13 09:23:48;;;;;;;5.87;1.87;;;;;;;;;;5055778;28;20452;-57
2022/06/13 09:26:20;;;;;;;2.73;1.80;;;;;;;;;;5055608;28;20444;-57
2022/06/13 09:28:50;;;;;;;5.53;1.53;;;;;;;;;;5055902;28;20462;-55
2022/06/13 09:31:23;;;;;;;4.40;1.60;;;;;;;;;;5055534;28;20448;-56
2022/06/13 09:33:52;;;;;;;5.10;2.10;;;;;;;;;;5055678;28;20467;-55
2022/06/13 09:36:23;;;;;;;3.13;2.33;;;;;;;;;;5055410;28;20444;-57
2022/06/13 09:38:53;;;;;;;8.10;1.90;;;;;;;;;;5055430;28;20539;-59
2022/06/13 09:41:27;;;;;;;3.63;1.90;;;;;;;;;;5055613;28;20825;-59
2022/06/13 09:43:59;;;;;;;2.90;1.60;;;;;;;;;;5055305;28;20563;-53
2022/06/13 09:46:30;;;;;;;3.33;1.60;;;;;;;;;;5055389;28;20452;-59
2022/06/13 09:49:02;;;;;;;4.60;1.57;;;;;;;;;;5055260;28;20495;-59
2022/06/13 09:51:39;;;;;;;2.37;1.60;;;;;;;;;;5055197;28;20994;-59
2022/06/13 09:54:11;;;;;;;2.97;1.70;;;;;;;;;;5055298;28;20800;-59
2022/06/13 09:56:57;;;;;;;5.30;1.70;;;;;;;;;;5055235;28;20454;-53
2022/06/13 09:59:29;;;;;;;2.90;1.47;;;;;;;;;;5054224;28;20448;-54
2022/06/13 10:02:00;;;;;;;3.37;1.73;;;;;;;;;;5055195;28;20456;-51
2022/06/13 10:04:34;;;;;;;3.70;1.90;;;;;;;;;;5055123;28;20444;-54
2022/06/13 10:07:04;;;;;;;6.50;2.13;;;;;;;;;;5055018;28;20540;-59
2022/06/13 10:09:37;;;;;;;4.03;1.87;;;;;;;;;;5055361;28;20448;-58
2022/06/13 10:12:11;;;;;;;4.40;2.60;;;;;;;;;;5054891;28;20472;-59
2022/06/13 10:14:43;;;;;;;4.50;1.70;;;;;;;;;;5054846;28;20452;-60
2022/06/13 10:17:21;;;;;;;4.47;2.00;;;;;;;;;;5054889;28;20453;-58
2022/06/13 10:19:52;;;;;;;4.57;2.00;;;;;;;;;;5054733;28;20454;-58
2022/06/13 10:22:30;;;;;;;3.33;2.07;;;;;;;;;;5054580;28;20854;-58
2022/06/13 10:25:03;;;;;;;4.60;1.90;;;;;;;;;;5054721;28;20491;-58
2022/06/13 10:27:36;;;;;;;6.60;2.70;;;;;;;;;;5054596;28;20453;-58
2022/06/13 10:30:12;;;;;;;4.97;2.10;;;;;;;;;;5054600;28;20458;-60
2022/06/13 10:32:44;;;;;;;8.60;3.53;;;;;;;;;;5054290;28;20484;-58
2022/06/13 10:35:16;;;;;;;3.40;1.73;;;;;;;;;;5054509;28;20807;-58
2022/06/13 10:37:48;;;;;;;5.10;1.90;;;;;;;;;;5054228;28;20539;-53
2022/06/13 10:40:16;;;;;;;8.00;1.60;;;;;;;;;;5054413;28;20448;-58
2022/06/13 10:42:45;;;;;;;3.80;2.00;;;;;;;;;;5054047;28;20511;-58
2022/06/13 10:45:14;;;;;;;3.30;1.50;;;;;;;;;;5054084;28;20510;-58
2022/06/13 10:47:46;;;;;;;5.23;1.70;;;;;;;;;;5054233;28;20444;-58
2022/06/13 10:50:14;;;;;;;4.20;2.23;;;;;;;;;;5054294;28;20502;-58
2022/06/13 10:52:45;;;;;;;6.60;2.77;;;;;;;;;;5053987;28;20476;-58
2022/06/13 10:55:13;;;;;;;7.43;2.20;;;;;;;;;;5053460;28;20476;-57
2022/06/13 10:57:42;;;;;;;2.38;2.13;;;;;;;;;;5053655;28;20377;-57
2022/06/13 11:00:18;;;;;;;2.23;1.80;;;;;;;;;;5054059;28;20214;-56
2022/06/13 11:02:46;;;;;;;6.33;2.03;;;;;;;;;;5053889;28;20485;-58
2022/06/13 11:05:14;;;;;;;9.40;3.10;;;;;;;;;;5053950;28;20456;-60
2022/06/13 11:07:49;;;;;;;3.27;1.97;;;;;;;;;;5053791;28;20539;-58
2022/06/13 11:10:28;;;;;;;5.50;1.93;;;;;;;;;;5053348;28;20440;-57
2022/06/13 11:12:55;;;;;;;3.87;1.53;;;;;;;;;;5053556;28;20516;-54
2022/06/13 11:23:46;;;;;;;4.90;1.60;;;;;;;;;;5053408;28;20475;-58
2022/06/13 11:28:54;;;;;;;5.43;2.20;;;;;;;;;;5053149;28;21066;-59
2022/06/13 11:31:26;;;;;;;2.07;1.50;;;;;;;;;;5053388;28;20448;-59
2022/06/13 11:33:53;;;;;;;5.63;2.20;;;;;;;;;;5053423;28;20487;-59
2022/06/13 11:36:22;;;;;;;3.87;1.50;;;;;;;;;;5053467;28;20502;-57
2022/06/13 11:38:53;;;;;;;4.50;1.70;;;;;;;;;;5053277;28;20506;-58
2022/06/13 11:41:21;;;;;;;2.80;1.57;;;;;;;;;;5052936;28;20451;-58
2022/06/13 11:43:51;;;;;;;4.33;1.87;;;;;;;;;;5052992;28;20476;-60
2022/06/13 11:46:37;;;;;;;3.10;1.93;;;;;;;;;;5053286;28;20557;-57
2022/06/13 11:49:06;;;;;;;2.10;1.40;;;;;;;;;;5053105;28;20448;-60
2022/06/13 11:51:41;;;;;;;2.33;1.30;;;;;;;;;;5052839;28;20432;-60
2022/06/13 11:54:18;;;;;;;2.70;1.20;;;;;;;;;;5050674;28;20495;-59
2022/06/13 11:56:45;;;;;;;1.60;1.27;;;;;;;;;;5033108;28;20542;-60
2022/06/13 11:59:15;;;;;;;3.40;1.70;;;;;;;;;;5032886;28;20551;-59
2022/06/13 12:01:44;;;;;;;3.37;1.57;;;;;;;;;;5033237;28;20461;-59
2022/06/13 12:04:17;;;;;;;3.30;1.50;;;;;;;;;;5032799;28;20457;-60
2022/06/13 12:06:46;;;;;;;1.40;1.10;;;;;;;;;;5032899;28;20456;-60
2022/06/13 12:09:15;;;;;;;2.90;1.30;;;;;;;;;;5032868;28;20449;-59
2022/06/13 12:11:47;;;;;;;4.53;1.70;;;;;;;;;;5033041;28;20459;-59
2022/06/13 12:14:14;;;;;;;1.90;1.20;;;;;;;;;;5032656;28;20485;-59
2022/06/13 12:16:49;;;;;;;2.07;1.20;;;;;;;;;;5032576;28;20544;-60
2022/06/13 12:19:20;;;;;;;1.40;1.10;;;;;;;;;;5032997;28;20456;-59
2022/06/13 12:21:49;;;;;;;2.80;1.30;;;;;;;;;;5031744;28;21018;-57
2022/06/13 12:24:19;;;;;;;3.70;1.87;;;;;;;;;;5032284;28;20540;-57
2022/06/13 12:26:50;;;;;;;3.80;1.87;;;;;;;;;;5032806;28;20453;-55
2022/06/13 12:29:29;;;;;;;3.20;1.60;;;;;;;;;;5032640;28;20449;-57
2022/06/13 12:32:00;;;;;;;3.30;1.30;;;;;;;;;;5032845;28;20449;-56
2022/06/13 12:34:32;;;;;;;3.73;1.60;;;;;;;;;;5032631;28;20485;-57
2022/06/13 12:37:09;;;;;;;5.27;1.67;;;;;;;;;;5032538;28;20952;-56
2022/06/13 12:39:47;;;;;;;4.77;1.47;;;;;;;;;;5032487;28;20449;-54
2022/06/13 12:42:20;;;;;;;1.70;1.60;;;;;;;;;;5032714;28;20452;-56
2022/06/13 12:45:04;;;;;;;6.40;1.67;;;;;;;;;;4993293;28;20577;-58
2022/06/13 12:47:43;;;;;;;6.63;2.07;;;;;;;;;;4982227;28;20457;-56
2022/06/13 12:50:26;;;;;;;8.87;1.97;;;;;;;;;;4993037;28;20452;-55
2022/06/13 12:53:00;;;;;;;2.37;1.93;;;;;;;;;;4993104;28;20482;-55
2022/06/13 12:55:34;;;;;;;7.90;1.60;;;;;;;;;;4993063;28;20454;-56
2022/06/13 12:58:06;;;;;;;10.27;2.53;;;;;;;;;;4993028;28;20446;-56
2022/06/13 13:00:38;;;;;;;9.33;2.40;;;;;;;;;;4992962;28;20457;-56
2022/06/13 13:03:22;;;;;;;4.83;1.80;;;;;;;;;;4992900;28;20473;-56
2022/06/13 13:05:54;;;;;;;4.53;1.90;;;;;;;;;;4993166;28;20585;-55
2022/06/13 13:08:27;;;;;;;5.47;1.90;;;;;;;;;;4993066;28;20510;-56
2022/06/13 13:11:12;;;;;;;2.83;1.43;;;;;;;;;;4992711;28;20541;-56
2022/06/13 13:13:43;;;;;;;7.33;1.47;;;;;;;;;;4992843;28;20489;-57
2022/06/13 13:16:14;;;;;;;1.23;1.13;;;;;;;;;;4993035;28;20513;-55
2022/06/13 13:18:46;;;;;;;2.87;1.40;;;;;;;;;;4993017;28;20455;-55
2022/06/13 13:21:17;;;;;;;1.20;1.00;;;;;;;;;;4992947;28;20458;-57
2022/06/13 13:23:47;;;;;;;4.07;1.53;;;;;;;;;;4992800;28;20466;-57
2022/06/13 13:26:19;;;;;;;2.13;1.53;;;;;;;;;;4993024;28;20759;-55
2022/06/13 13:28:52;;;;;;;3.20;1.73;;;;;;;;;;4992992;28;21031;-59
2022/06/13 13:31:21;;;;;;;1.40;1.00;;;;;;;;;;4992871;28;20454;-58
2022/06/13 13:33:56;;;;;;;2.70;1.07;;;;;;;;;;4994546;28;20478;-58
2022/06/13 13:36:27;;;;;;;3.40;1.60;;;;;;;;;;4996402;28;20455;-58
2022/06/13 13:38:57;;;;;;;2.50;1.50;;;;;;;;;;4996334;28;20454;-58
2022/06/13 13:41:29;;;;;;;1.93;1.23;;;;;;;;;;4996549;28;20785;-58
2022/06/13 13:43:59;;;;;;;3.10;1.50;;;;;;;;;;5021910;28;20481;-58
2022/06/13 13:46:29;;;;;;;2.70;1.60;;;;;;;;;;5035456;28;20453;-59
2022/06/13 13:48:59;;;;;;;2.53;1.80;;;;;;;;;;5035594;28;20484;-59
2022/06/13 13:51:28;;;;;;;1.30;1.20;;;;;;;;;;5035623;28;20455;-58
2022/06/13 13:53:57;;;;;;;2.13;1.40;;;;;;;;;;5035306;28;20485;-56
2022/06/13 13:56:27;;;;;;;1.90;1.60;;;;;;;;;;5035799;28;20453;-57
2022/06/13 13:58:55;;;;;;;4.23;1.77;;;;;;;;;;5035072;28;20543;-59
2022/06/13 14:01:30;;;;;;;3.00;1.53;;;;;;;;;;5035409;28;20449;-58
2022/06/13 14:04:16;;;;;;;2.13;1.47;;;;;;;;;;5035326;28;20459;-57
2022/06/13 14:06:45;;;;;;;2.77;1.67;;;;;;;;;;5035262;28;20560;-58
2022/06/13 14:09:13;;;;;;;8.07;1.70;;;;;;;;;;5035052;28;20447;-57
2022/06/13 14:11:58;;;;;;;2.53;1.47;;;;;;;;;;5035023;28;21027;-58
2022/06/13 14:14:27;;;;;;;3.87;1.30;;;;;;;;;;5035064;28;20481;-57
2022/06/13 14:16:55;;;;;;;3.47;1.50;;;;;;;;;;5034829;28;20450;-58
2022/06/13 14:19:25;;;;;;;2.57;1.80;;;;;;;;;;5034789;28;20536;-58
2022/06/13 14:22:03;;;;;;;6.20;3.10;;;;;;;;;;5035060;28;20874;-58
2022/06/13 14:24:31;;;;;;;2.50;1.63;;;;;;;;;;5034958;28;20461;-58
2022/06/13 14:27:02;;;;;;;4.80;1.30;;;;;;;;;;5034949;28;20821;-58
2022/06/13 14:29:32;;;;;;;4.67;1.30;;;;;;;;;;5034795;28;20445;-58
2022/06/13 14:32:00;;;;;;;2.17;1.27;;;;;;;;;;5034728;28;20949;-57
2022/06/13 14:37:30;;;;;;;4.43;2.27;;;;;;;;;;5034614;28;20828;-59
2022/06/13 14:39:59;;;;;;;1.47;1.37;;;;;;;;;;5034590;28;20453;-58
2022/06/13 14:42:36;;;;;;;4.60;1.73;;;;;;;;;;5034243;28;20524;-59
2022/06/13 14:45:05;;;;;;;4.10;1.30;;;;;;;;;;5033899;28;20453;-57
2022/06/13 14:47:56;;;;;;;2.70;1.20;;;;;;;;;;5034499;28;20445;-57
2022/06/13 14:50:40;;;;;;;2.00;1.30;;;;;;;;;;5024059;28;20461;-58
2022/06/13 14:53:26;;;;;;;2.40;1.00;;;;;;;;;;5034229;28;20532;-58
2022/06/13 14:56:17;;;;;;;1.40;1.30;;;;;;;;;;5034365;28;20459;-58
2022/06/13 14:58:55;;;;;;;5.60;1.50;;;;;;;;;;5023849;28;20833;-59
2022/06/13 15:01:23;;;;;;;2.10;1.00;;;;;;;;;;5034076;28;20455;-58
2022/06/13 15:04:07;;;;;;;3.27;1.40;;;;;;;;;;5033943;28;21007;-59
2022/06/13 15:06:36;;;;;;;1.30;1.00;;;;;;;;;;5034071;28;20460;-57
2022/06/13 15:09:11;;;;;;;1.53;1.03;;;;;;;;;;5034301;28;20632;-58
2022/06/13 15:11:40;;;;;;;1.17;1.07;;;;;;;;;;5033910;28;20952;-59
2022/06/13 15:14:11;;;;;;;4.17;0.97;;;;;;;;;;5034036;28;20479;-58
2022/06/13 15:16:37;;;;;;;2.80;1.37;;;;;;;;;;5033991;28;20453;-57
2022/06/13 15:19:06;;;;;;;1.67;1.10;;;;;;;;;;5033772;28;20449;-58
2022/06/13 15:21:35;;;;;;;2.07;1.00;;;;;;;;;;5033737;28;21003;-58
2022/06/13 15:24:07;;;;;;;1.13;1.03;;;;;;;;;;5033689;28;20543;-58
2022/06/13 15:26:34;;;;;;;1.07;0.90;;;;;;;;;;5033739;28;20809;-58
2022/06/13 15:29:14;;;;;;;3.37;1.20;;;;;;;;;;5033709;28;20944;-58